sensor_id;sensor_type;location;lat;lon;timestamp;P1;durP1;ratioP1;P2;durP2;ratioP2
65656;SDS011;57397;50.096;14.404;2023-02-08T00:02:10;20.02;;;10.57;;
65656;SDS011;57397;50.096;14.404;2023-02-08T00:04:36;19.42;;;10.65;;
65656;SDS011;57397;50.096;14.404;2023-02-08T00:07:01;21.40;;;10.68;;
65656;SDS011;57397;50.096;14.404;2023-02-08T00:09:27;20.67;;;11.40;;
65656;SDS011;57397;50.096;14.404;2023-02-08T00:11:52;20.05;;;10.80;;
65656;SDS011;57397;50.096;14.404;2023-02-08T00:14:18;19.55;;;11.00;;
65656;SDS011;57397;50.096;14.404;2023-02-08T00:16:44;21.65;;;11.35;;
65656;SDS011;57397;50.096;14.404;2023-02-08T00:19:09;19.60;;;11.05;;
65656;SDS011;57397;50.096;14.404;2023-02-08T00:21:35;19.38;;;10.88;;
65656;SDS011;57397;50.096;14.404;2023-02-08T00:24:00;20.77;;;10.55;;
65656;SDS011;57397;50.096;14.404;2023-02-08T00:26:26;20.83;;;10.45;;
65656;SDS011;57397;50.096;14.404;2023-02-08T00:28:51;20.83;;;10.73;;
65656;SDS011;57397;50.096;14.404;2023-02-08T00:31:17;18.92;;;10.35;;
65656;SDS011;57397;50.096;14.404;2023-02-08T00:33:42;21.67;;;11.40;;
65656;SDS011;57397;50.096;14.404;2023-02-08T00:36:08;17.30;;;10.48;;
65656;SDS011;57397;50.096;14.404;2023-02-08T00:38:35;20.60;;;10.95;;
65656;SDS011;57397;50.096;14.404;2023-02-08T00:41:00;19.15;;;10.60;;
65656;SDS011;57397;50.096;14.404;2023-02-08T00:43:26;19.73;;;10.70;;
65656;SDS011;57397;50.096;14.404;2023-02-08T00:45:52;20.75;;;10.35;;
65656;SDS011;57397;50.096;14.404;2023-02-08T00:48:22;20.23;;;11.07;;
65656;SDS011;57397;50.096;14.404;2023-02-08T00:56:02;19.60;;;10.52;;
65656;SDS011;57397;50.096;14.404;2023-02-08T00:58:28;18.48;;;10.07;;
65656;SDS011;57397;50.096;14.404;2023-02-08T01:00:53;19.48;;;10.75;;
65656;SDS011;57397;50.096;14.404;2023-02-08T01:03:21;21.20;;;10.43;;
65656;SDS011;57397;50.096;14.404;2023-02-08T01:05:47;19.58;;;10.57;;
65656;SDS011;57397;50.096;14.404;2023-02-08T01:08:13;21.45;;;11.45;;
65656;SDS011;57397;50.096;14.404;2023-02-08T01:10:38;19.25;;;10.65;;
65656;SDS011;57397;50.096;14.404;2023-02-08T01:13:04;21.80;;;11.43;;
65656;SDS011;57397;50.096;14.404;2023-02-08T01:15:29;20.20;;;11.18;;
65656;SDS011;57397;50.096;14.404;2023-02-08T01:17:55;19.00;;;10.10;;
65656;SDS011;57397;50.096;14.404;2023-02-08T01:20:21;19.95;;;10.75;;
65656;SDS011;57397;50.096;14.404;2023-02-08T01:22:48;22.42;;;11.90;;
65656;SDS011;57397;50.096;14.404;2023-02-08T01:25:13;20.38;;;10.75;;
65656;SDS011;57397;50.096;14.404;2023-02-08T01:27:39;19.90;;;11.57;;
65656;SDS011;57397;50.096;14.404;2023-02-08T01:30:05;20.05;;;11.32;;
65656;SDS011;57397;50.096;14.404;2023-02-08T01:32:31;21.05;;;10.80;;
65656;SDS011;57397;50.096;14.404;2023-02-08T01:34:57;22.02;;;11.13;;
65656;SDS011;57397;50.096;14.404;2023-02-08T01:37:22;20.23;;;10.13;;
65656;SDS011;57397;50.096;14.404;2023-02-08T01:39:48;21.05;;;11.02;;
65656;SDS011;57397;50.096;14.404;2023-02-08T01:42:15;17.77;;;10.40;;
65656;SDS011;57397;50.096;14.404;2023-02-08T01:47:44;18.83;;;10.32;;
65656;SDS011;57397;50.096;14.404;2023-02-08T01:50:12;19.13;;;10.75;;
65656;SDS011;57397;50.096;14.404;2023-02-08T01:52:38;20.27;;;10.85;;
65656;SDS011;57397;50.096;14.404;2023-02-08T01:55:08;20.75;;;11.05;;
65656;SDS011;57397;50.096;14.404;2023-02-08T01:57:40;19.20;;;10.70;;
65656;SDS011;57397;50.096;14.404;2023-02-08T02:00:08;19.42;;;11.25;;
65656;SDS011;57397;50.096;14.404;2023-02-08T02:02:38;21.52;;;11.52;;
65656;SDS011;57397;50.096;14.404;2023-02-08T02:05:05;20.13;;;10.82;;
65656;SDS011;57397;50.096;14.404;2023-02-08T02:07:31;18.92;;;10.77;;
65656;SDS011;57397;50.096;14.404;2023-02-08T02:10:02;18.55;;;10.25;;
65656;SDS011;57397;50.096;14.404;2023-02-08T02:12:34;20.77;;;10.18;;
65656;SDS011;57397;50.096;14.404;2023-02-08T02:15:00;18.67;;;10.60;;
65656;SDS011;57397;50.096;14.404;2023-02-08T02:17:26;20.00;;;10.32;;
65656;SDS011;57397;50.096;14.404;2023-02-08T02:19:54;18.77;;;10.57;;
65656;SDS011;57397;50.096;14.404;2023-02-08T02:25:51;19.17;;;10.60;;
65656;SDS011;57397;50.096;14.404;2023-02-08T02:28:06;19.08;;;10.27;;
65656;SDS011;57397;50.096;14.404;2023-02-08T02:47:31;19.38;;;10.73;;
65656;SDS011;57397;50.096;14.404;2023-02-08T02:50:11;19.30;;;9.88;;
65656;SDS011;57397;50.096;14.404;2023-02-08T02:52:42;18.67;;;10.00;;
65656;SDS011;57397;50.096;14.404;2023-02-08T02:55:15;19.52;;;10.65;;
65656;SDS011;57397;50.096;14.404;2023-02-08T02:57:44;19.38;;;10.32;;
65656;SDS011;57397;50.096;14.404;2023-02-08T03:00:17;20.10;;;10.30;;
65656;SDS011;57397;50.096;14.404;2023-02-08T03:02:45;19.80;;;10.15;;
65656;SDS011;57397;50.096;14.404;2023-02-08T03:05:11;20.23;;;10.43;;
65656;SDS011;57397;50.096;14.404;2023-02-08T03:16:18;21.10;;;10.10;;
65656;SDS011;57397;50.096;14.404;2023-02-08T03:26:34;19.27;;;10.15;;
65656;SDS011;57397;50.096;14.404;2023-02-08T03:31:41;19.92;;;10.02;;
65656;SDS011;57397;50.096;14.404;2023-02-08T03:34:32;18.10;;;9.55;;
65656;SDS011;57397;50.096;14.404;2023-02-08T03:37:45;18.30;;;9.65;;
65656;SDS011;57397;50.096;14.404;2023-02-08T03:40:22;18.23;;;10.48;;
65656;SDS011;57397;50.096;14.404;2023-02-08T03:42:49;18.60;;;10.13;;
65656;SDS011;57397;50.096;14.404;2023-02-08T03:45:28;18.02;;;9.63;;
65656;SDS011;57397;50.096;14.404;2023-02-08T03:47:56;17.40;;;10.20;;
65656;SDS011;57397;50.096;14.404;2023-02-08T03:50:24;17.88;;;9.70;;
65656;SDS011;57397;50.096;14.404;2023-02-08T03:52:51;18.17;;;9.60;;
65656;SDS011;57397;50.096;14.404;2023-02-08T03:55:24;18.90;;;9.70;;
65656;SDS011;57397;50.096;14.404;2023-02-08T03:58:02;18.45;;;10.40;;
65656;SDS011;57397;50.096;14.404;2023-02-08T04:00:28;15.75;;;9.40;;
65656;SDS011;57397;50.096;14.404;2023-02-08T04:02:56;17.08;;;9.85;;
65656;SDS011;57397;50.096;14.404;2023-02-08T04:05:26;19.42;;;10.00;;
65656;SDS011;57397;50.096;14.404;2023-02-08T04:07:51;16.27;;;9.48;;
65656;SDS011;57397;50.096;14.404;2023-02-08T04:10:17;17.80;;;9.82;;
65656;SDS011;57397;50.096;14.404;2023-02-08T04:12:42;16.95;;;9.25;;
65656;SDS011;57397;50.096;14.404;2023-02-08T04:15:08;19.00;;;10.18;;
65656;SDS011;57397;50.096;14.404;2023-02-08T04:17:33;18.55;;;10.13;;
65656;SDS011;57397;50.096;14.404;2023-02-08T04:20:02;18.15;;;10.20;;
65656;SDS011;57397;50.096;14.404;2023-02-08T04:22:28;17.58;;;9.45;;
65656;SDS011;57397;50.096;14.404;2023-02-08T04:24:53;16.88;;;9.45;;
65656;SDS011;57397;50.096;14.404;2023-02-08T04:27:19;17.58;;;9.27;;
65656;SDS011;57397;50.096;14.404;2023-02-08T04:29:44;18.50;;;10.35;;
65656;SDS011;57397;50.096;14.404;2023-02-08T04:32:10;17.25;;;10.18;;
65656;SDS011;57397;50.096;14.404;2023-02-08T04:34:39;17.67;;;9.40;;
65656;SDS011;57397;50.096;14.404;2023-02-08T04:37:05;16.90;;;9.43;;
65656;SDS011;57397;50.096;14.404;2023-02-08T04:39:31;20.98;;;10.32;;
65656;SDS011;57397;50.096;14.404;2023-02-08T04:41:56;19.60;;;10.60;;
65656;SDS011;57397;50.096;14.404;2023-02-08T04:44:22;18.58;;;9.85;;
65656;SDS011;57397;50.096;14.404;2023-02-08T04:46:48;19.50;;;9.77;;
65656;SDS011;57397;50.096;14.404;2023-02-08T04:49:13;18.30;;;10.15;;
65656;SDS011;57397;50.096;14.404;2023-02-08T04:51:39;17.90;;;9.30;;
65656;SDS011;57397;50.096;14.404;2023-02-08T04:54:05;18.38;;;10.10;;
65656;SDS011;57397;50.096;14.404;2023-02-08T04:56:30;20.58;;;10.50;;
65656;SDS011;57397;50.096;14.404;2023-02-08T04:58:56;17.65;;;9.35;;
65656;SDS011;57397;50.096;14.404;2023-02-08T05:01:22;19.52;;;10.15;;
65656;SDS011;57397;50.096;14.404;2023-02-08T05:03:47;17.90;;;10.05;;
65656;SDS011;57397;50.096;14.404;2023-02-08T05:06:13;19.08;;;9.93;;
65656;SDS011;57397;50.096;14.404;2023-02-08T05:08:38;18.30;;;9.98;;
65656;SDS011;57397;50.096;14.404;2023-02-08T05:11:04;18.05;;;10.02;;
65656;SDS011;57397;50.096;14.404;2023-02-08T05:13:30;17.33;;;9.93;;
65656;SDS011;57397;50.096;14.404;2023-02-08T05:15:56;17.70;;;10.00;;
65656;SDS011;57397;50.096;14.404;2023-02-08T05:18:21;19.38;;;9.98;;
65656;SDS011;57397;50.096;14.404;2023-02-08T05:20:57;17.38;;;9.20;;
65656;SDS011;57397;50.096;14.404;2023-02-08T05:23:24;19.23;;;10.38;;
65656;SDS011;57397;50.096;14.404;2023-02-08T05:25:50;17.80;;;10.05;;
65656;SDS011;57397;50.096;14.404;2023-02-08T05:28:16;18.83;;;9.85;;
65656;SDS011;57397;50.096;14.404;2023-02-08T05:30:42;20.27;;;10.30;;
65656;SDS011;57397;50.096;14.404;2023-02-08T05:33:08;18.15;;;9.77;;
65656;SDS011;57397;50.096;14.404;2023-02-08T05:35:34;17.95;;;10.18;;
65656;SDS011;57397;50.096;14.404;2023-02-08T05:37:59;17.60;;;9.60;;
65656;SDS011;57397;50.096;14.404;2023-02-08T05:40:25;17.50;;;10.43;;
65656;SDS011;57397;50.096;14.404;2023-02-08T05:42:50;16.95;;;9.57;;
65656;SDS011;57397;50.096;14.404;2023-02-08T05:45:15;19.77;;;10.13;;
65656;SDS011;57397;50.096;14.404;2023-02-08T05:47:41;20.83;;;10.27;;
65656;SDS011;57397;50.096;14.404;2023-02-08T05:50:07;17.95;;;9.93;;
65656;SDS011;57397;50.096;14.404;2023-02-08T05:52:33;19.05;;;9.73;;
65656;SDS011;57397;50.096;14.404;2023-02-08T05:54:58;19.50;;;10.40;;
65656;SDS011;57397;50.096;14.404;2023-02-08T05:57:24;19.15;;;10.23;;
65656;SDS011;57397;50.096;14.404;2023-02-08T05:59:50;17.10;;;9.70;;
65656;SDS011;57397;50.096;14.404;2023-02-08T06:02:15;19.85;;;10.07;;
65656;SDS011;57397;50.096;14.404;2023-02-08T06:04:41;18.13;;;9.93;;
65656;SDS011;57397;50.096;14.404;2023-02-08T06:07:06;19.80;;;10.30;;
65656;SDS011;57397;50.096;14.404;2023-02-08T06:09:32;20.08;;;10.30;;
65656;SDS011;57397;50.096;14.404;2023-02-08T06:11:57;18.98;;;9.68;;
65656;SDS011;57397;50.096;14.404;2023-02-08T06:14:22;18.05;;;9.95;;
65656;SDS011;57397;50.096;14.404;2023-02-08T06:16:49;17.67;;;9.88;;
65656;SDS011;57397;50.096;14.404;2023-02-08T06:19:14;20.17;;;10.73;;
65656;SDS011;57397;50.096;14.404;2023-02-08T06:21:40;17.50;;;9.55;;
65656;SDS011;57397;50.096;14.404;2023-02-08T06:24:06;18.67;;;9.98;;
65656;SDS011;57397;50.096;14.404;2023-02-08T06:26:32;17.90;;;9.65;;
65656;SDS011;57397;50.096;14.404;2023-02-08T06:28:58;18.00;;;9.35;;
65656;SDS011;57397;50.096;14.404;2023-02-08T06:31:24;20.38;;;10.35;;
65656;SDS011;57397;50.096;14.404;2023-02-08T06:33:49;16.80;;;9.50;;
65656;SDS011;57397;50.096;14.404;2023-02-08T06:36:15;18.02;;;10.20;;
65656;SDS011;57397;50.096;14.404;2023-02-08T06:38:40;18.00;;;9.68;;
65656;SDS011;57397;50.096;14.404;2023-02-08T06:41:06;19.35;;;10.48;;
65656;SDS011;57397;50.096;14.404;2023-02-08T06:43:34;18.65;;;9.38;;
65656;SDS011;57397;50.096;14.404;2023-02-08T06:45:59;20.25;;;9.55;;
65656;SDS011;57397;50.096;14.404;2023-02-08T06:48:29;17.05;;;9.60;;
65656;SDS011;57397;50.096;14.404;2023-02-08T06:50:55;18.42;;;9.55;;
65656;SDS011;57397;50.096;14.404;2023-02-08T06:53:21;17.73;;;9.85;;
65656;SDS011;57397;50.096;14.404;2023-02-08T06:55:49;16.80;;;9.23;;
65656;SDS011;57397;50.096;14.404;2023-02-08T06:58:18;17.90;;;9.43;;
65656;SDS011;57397;50.096;14.404;2023-02-08T07:00:44;17.30;;;10.02;;
65656;SDS011;57397;50.096;14.404;2023-02-08T07:03:10;18.58;;;9.32;;
65656;SDS011;57397;50.096;14.404;2023-02-08T07:05:36;17.20;;;9.93;;
65656;SDS011;57397;50.096;14.404;2023-02-08T07:08:02;17.90;;;9.80;;
65656;SDS011;57397;50.096;14.404;2023-02-08T07:10:28;19.23;;;9.70;;
65656;SDS011;57397;50.096;14.404;2023-02-08T07:12:54;18.80;;;9.93;;
65656;SDS011;57397;50.096;14.404;2023-02-08T07:15:19;18.80;;;9.57;;
65656;SDS011;57397;50.096;14.404;2023-02-08T07:17:45;19.55;;;10.00;;
65656;SDS011;57397;50.096;14.404;2023-02-08T07:20:10;19.52;;;10.38;;
65656;SDS011;57397;50.096;14.404;2023-02-08T07:22:37;18.58;;;10.00;;
65656;SDS011;57397;50.096;14.404;2023-02-08T07:25:03;17.30;;;9.73;;
65656;SDS011;57397;50.096;14.404;2023-02-08T07:27:29;18.90;;;9.88;;
65656;SDS011;57397;50.096;14.404;2023-02-08T07:29:54;18.15;;;10.32;;
65656;SDS011;57397;50.096;14.404;2023-02-08T07:32:20;16.45;;;9.95;;
65656;SDS011;57397;50.096;14.404;2023-02-08T07:34:45;18.20;;;9.85;;
65656;SDS011;57397;50.096;14.404;2023-02-08T07:37:11;17.92;;;9.68;;
65656;SDS011;57397;50.096;14.404;2023-02-08T07:39:36;18.35;;;9.82;;
65656;SDS011;57397;50.096;14.404;2023-02-08T07:42:02;16.42;;;8.77;;
65656;SDS011;57397;50.096;14.404;2023-02-08T07:44:30;18.83;;;9.93;;
65656;SDS011;57397;50.096;14.404;2023-02-08T07:46:56;18.35;;;10.30;;
65656;SDS011;57397;50.096;14.404;2023-02-08T07:49:21;19.48;;;10.27;;
65656;SDS011;57397;50.096;14.404;2023-02-08T07:51:47;19.73;;;9.80;;
65656;SDS011;57397;50.096;14.404;2023-02-08T07:54:13;21.85;;;10.27;;
65656;SDS011;57397;50.096;14.404;2023-02-08T07:56:38;20.27;;;10.43;;
65656;SDS011;57397;50.096;14.404;2023-02-08T07:59:04;20.85;;;11.23;;
65656;SDS011;57397;50.096;14.404;2023-02-08T08:01:29;17.95;;;10.20;;
65656;SDS011;57397;50.096;14.404;2023-02-08T08:03:55;18.98;;;10.10;;
65656;SDS011;57397;50.096;14.404;2023-02-08T08:06:21;19.33;;;10.73;;
65656;SDS011;57397;50.096;14.404;2023-02-08T08:08:47;20.90;;;10.55;;
65656;SDS011;57397;50.096;14.404;2023-02-08T08:11:14;21.65;;;11.50;;
65656;SDS011;57397;50.096;14.404;2023-02-08T08:13:40;20.40;;;10.93;;
65656;SDS011;57397;50.096;14.404;2023-02-08T08:16:06;21.23;;;11.13;;
65656;SDS011;57397;50.096;14.404;2023-02-08T08:18:31;23.05;;;11.25;;
65656;SDS011;57397;50.096;14.404;2023-02-08T08:20:57;20.63;;;10.82;;
65656;SDS011;57397;50.096;14.404;2023-02-08T08:23:22;22.35;;;11.25;;
65656;SDS011;57397;50.096;14.404;2023-02-08T08:25:48;21.95;;;11.05;;
65656;SDS011;57397;50.096;14.404;2023-02-08T08:28:14;20.10;;;11.02;;
65656;SDS011;57397;50.096;14.404;2023-02-08T08:30:43;19.25;;;10.95;;
65656;SDS011;57397;50.096;14.404;2023-02-08T08:33:10;19.67;;;10.60;;
65656;SDS011;57397;50.096;14.404;2023-02-08T08:35:37;23.83;;;11.48;;
65656;SDS011;57397;50.096;14.404;2023-02-08T08:38:03;20.52;;;10.82;;
65656;SDS011;57397;50.096;14.404;2023-02-08T08:40:29;24.27;;;11.25;;
65656;SDS011;57397;50.096;14.404;2023-02-08T08:42:55;19.17;;;10.80;;
65656;SDS011;57397;50.096;14.404;2023-02-08T08:45:21;21.92;;;11.40;;
65656;SDS011;57397;50.096;14.404;2023-02-08T08:47:46;20.85;;;11.45;;
65656;SDS011;57397;50.096;14.404;2023-02-08T08:50:12;23.33;;;11.98;;
65656;SDS011;57397;50.096;14.404;2023-02-08T08:52:38;19.48;;;10.52;;
65656;SDS011;57397;50.096;14.404;2023-02-08T08:55:04;23.10;;;11.55;;
65656;SDS011;57397;50.096;14.404;2023-02-08T08:57:31;19.80;;;10.90;;
65656;SDS011;57397;50.096;14.404;2023-02-08T08:59:56;21.38;;;11.35;;
65656;SDS011;57397;50.096;14.404;2023-02-08T09:02:22;19.70;;;10.68;;
65656;SDS011;57397;50.096;14.404;2023-02-08T09:04:50;19.33;;;10.48;;
65656;SDS011;57397;50.096;14.404;2023-02-08T09:07:15;21.83;;;11.00;;
65656;SDS011;57397;50.096;14.404;2023-02-08T09:09:41;20.17;;;10.90;;
65656;SDS011;57397;50.096;14.404;2023-02-08T09:12:11;21.13;;;11.10;;
65656;SDS011;57397;50.096;14.404;2023-02-08T09:14:38;20.95;;;10.75;;
65656;SDS011;57397;50.096;14.404;2023-02-08T09:17:04;21.15;;;11.25;;
65656;SDS011;57397;50.096;14.404;2023-02-08T09:19:29;20.60;;;11.27;;
65656;SDS011;57397;50.096;14.404;2023-02-08T09:21:55;24.30;;;11.85;;
65656;SDS011;57397;50.096;14.404;2023-02-08T09:24:22;22.27;;;11.25;;
65656;SDS011;57397;50.096;14.404;2023-02-08T09:26:48;21.15;;;10.60;;
65656;SDS011;57397;50.096;14.404;2023-02-08T09:29:13;19.98;;;11.05;;
65656;SDS011;57397;50.096;14.404;2023-02-08T09:31:39;21.55;;;11.85;;
65656;SDS011;57397;50.096;14.404;2023-02-08T09:34:06;21.40;;;11.00;;
65656;SDS011;57397;50.096;14.404;2023-02-08T09:36:33;21.95;;;10.90;;
65656;SDS011;57397;50.096;14.404;2023-02-08T09:39:03;19.98;;;11.13;;
65656;SDS011;57397;50.096;14.404;2023-02-08T09:44:31;19.65;;;10.43;;
65656;SDS011;57397;50.096;14.404;2023-02-08T09:49:28;20.10;;;10.63;;
65656;SDS011;57397;50.096;14.404;2023-02-08T09:51:57;20.33;;;10.07;;
65656;SDS011;57397;50.096;14.404;2023-02-08T09:54:31;19.38;;;10.00;;
65656;SDS011;57397;50.096;14.404;2023-02-08T09:57:00;21.27;;;10.95;;
65656;SDS011;57397;50.096;14.404;2023-02-08T09:59:28;17.92;;;9.90;;
65656;SDS011;57397;50.096;14.404;2023-02-08T10:01:58;16.85;;;9.68;;
65656;SDS011;57397;50.096;14.404;2023-02-08T10:05:04;20.55;;;10.13;;
65656;SDS011;57397;50.096;14.404;2023-02-08T10:07:37;20.98;;;9.93;;
65656;SDS011;57397;50.096;14.404;2023-02-08T10:10:05;19.48;;;10.13;;
65656;SDS011;57397;50.096;14.404;2023-02-08T10:13:01;17.35;;;9.52;;
65656;SDS011;57397;50.096;14.404;2023-02-08T10:16:05;20.10;;;9.57;;
65656;SDS011;57397;50.096;14.404;2023-02-08T10:33:04;18.65;;;8.65;;
65656;SDS011;57397;50.096;14.404;2023-02-08T10:35:32;16.35;;;8.60;;
65656;SDS011;57397;50.096;14.404;2023-02-08T10:38:36;16.85;;;8.75;;
65656;SDS011;57397;50.096;14.404;2023-02-08T10:40:59;16.08;;;8.20;;
65656;SDS011;57397;50.096;14.404;2023-02-08T10:46:16;18.17;;;9.27;;
65656;SDS011;57397;50.096;14.404;2023-02-08T10:51:28;16.77;;;9.18;;
65656;SDS011;57397;50.096;14.404;2023-02-08T10:53:54;15.52;;;8.57;;
65656;SDS011;57397;50.096;14.404;2023-02-08T10:58:55;16.75;;;8.68;;
65656;SDS011;57397;50.096;14.404;2023-02-08T11:01:21;18.30;;;9.25;;
65656;SDS011;57397;50.096;14.404;2023-02-08T11:04:04;19.13;;;9.02;;
65656;SDS011;57397;50.096;14.404;2023-02-08T11:06:30;17.92;;;8.98;;
65656;SDS011;57397;50.096;14.404;2023-02-08T11:08:56;14.98;;;7.57;;
65656;SDS011;57397;50.096;14.404;2023-02-08T11:11:23;15.77;;;8.63;;
65656;SDS011;57397;50.096;14.404;2023-02-08T11:13:51;14.15;;;7.80;;
65656;SDS011;57397;50.096;14.404;2023-02-08T11:16:20;17.60;;;8.88;;
65656;SDS011;57397;50.096;14.404;2023-02-08T11:18:53;17.00;;;8.15;;
65656;SDS011;57397;50.096;14.404;2023-02-08T11:21:24;16.73;;;8.68;;
65656;SDS011;57397;50.096;14.404;2023-02-08T11:23:53;17.92;;;8.60;;
65656;SDS011;57397;50.096;14.404;2023-02-08T11:28:59;15.80;;;8.40;;
65656;SDS011;57397;50.096;14.404;2023-02-08T11:31:55;17.45;;;8.13;;
65656;SDS011;57397;50.096;14.404;2023-02-08T11:34:29;15.35;;;7.82;;
65656;SDS011;57397;50.096;14.404;2023-02-08T11:36:57;15.35;;;8.07;;
65656;SDS011;57397;50.096;14.404;2023-02-08T11:39:37;17.30;;;8.75;;
65656;SDS011;57397;50.096;14.404;2023-02-08T11:42:04;15.50;;;8.15;;
65656;SDS011;57397;50.096;14.404;2023-02-08T11:47:04;16.02;;;8.02;;
65656;SDS011;57397;50.096;14.404;2023-02-08T11:49:37;14.52;;;7.65;;
65656;SDS011;57397;50.096;14.404;2023-02-08T11:52:05;16.83;;;8.80;;
65656;SDS011;57397;50.096;14.404;2023-02-08T11:54:36;16.02;;;8.23;;
65656;SDS011;57397;50.096;14.404;2023-02-08T11:57:15;15.10;;;7.90;;
65656;SDS011;57397;50.096;14.404;2023-02-08T11:59:49;14.82;;;7.55;;
65656;SDS011;57397;50.096;14.404;2023-02-08T12:05:12;16.35;;;8.05;;
65656;SDS011;57397;50.096;14.404;2023-02-08T12:16:11;17.05;;;7.75;;
65656;SDS011;57397;50.096;14.404;2023-02-08T12:21:41;14.60;;;7.55;;
65656;SDS011;57397;50.096;14.404;2023-02-08T12:24:30;15.45;;;7.60;;
65656;SDS011;57397;50.096;14.404;2023-02-08T12:30:56;14.75;;;7.40;;
65656;SDS011;57397;50.096;14.404;2023-02-08T12:35:57;15.68;;;7.40;;
65656;SDS011;57397;50.096;14.404;2023-02-08T12:47:34;15.63;;;7.55;;
65656;SDS011;57397;50.096;14.404;2023-02-08T12:52:51;14.82;;;6.75;;
65656;SDS011;57397;50.096;14.404;2023-02-08T12:55:25;12.73;;;7.07;;
65656;SDS011;57397;50.096;14.404;2023-02-08T12:58:37;13.93;;;6.93;;
65656;SDS011;57397;50.096;14.404;2023-02-08T13:00:40;10.93;;;6.70;;
65656;SDS011;57397;50.096;14.404;2023-02-08T13:05:50;13.98;;;6.50;;
65656;SDS011;57397;50.096;14.404;2023-02-08T13:08:29;10.95;;;5.95;;
65656;SDS011;57397;50.096;14.404;2023-02-08T13:11:19;12.63;;;6.40;;
65656;SDS011;57397;50.096;14.404;2023-02-08T13:13:55;11.48;;;6.25;;
65656;SDS011;57397;50.096;14.404;2023-02-08T13:16:26;13.23;;;6.45;;
65656;SDS011;57397;50.096;14.404;2023-02-08T13:21:42;13.15;;;6.65;;
65656;SDS011;57397;50.096;14.404;2023-02-08T13:24:18;12.43;;;6.32;;
65656;SDS011;57397;50.096;14.404;2023-02-08T13:26:56;14.05;;;6.53;;
65656;SDS011;57397;50.096;14.404;2023-02-08T13:29:21;12.98;;;6.97;;
65656;SDS011;57397;50.096;14.404;2023-02-08T13:31:52;11.80;;;5.90;;
65656;SDS011;57397;50.096;14.404;2023-02-08T13:34:27;11.50;;;6.05;;
65656;SDS011;57397;50.096;14.404;2023-02-08T13:36:54;12.13;;;6.45;;
65656;SDS011;57397;50.096;14.404;2023-02-08T13:41:59;12.30;;;6.03;;
65656;SDS011;57397;50.096;14.404;2023-02-08T13:44:34;10.48;;;6.15;;
65656;SDS011;57397;50.096;14.404;2023-02-08T13:47:02;10.98;;;5.47;;
65656;SDS011;57397;50.096;14.404;2023-02-08T13:49:44;12.35;;;6.45;;
65656;SDS011;57397;50.096;14.404;2023-02-08T14:00:32;10.85;;;5.30;;
65656;SDS011;57397;50.096;14.404;2023-02-08T14:03:00;12.70;;;6.32;;
65656;SDS011;57397;50.096;14.404;2023-02-08T14:13:45;11.25;;;5.45;;
65656;SDS011;57397;50.096;14.404;2023-02-08T14:18:56;9.80;;;5.38;;
65656;SDS011;57397;50.096;14.404;2023-02-08T14:21:45;9.75;;;5.20;;
65656;SDS011;57397;50.096;14.404;2023-02-08T14:24:34;8.57;;;4.75;;
65656;SDS011;57397;50.096;14.404;2023-02-08T14:27:21;11.00;;;5.25;;
65656;SDS011;57397;50.096;14.404;2023-02-08T14:29:56;9.20;;;4.65;;
65656;SDS011;57397;50.096;14.404;2023-02-08T14:32:25;11.63;;;4.78;;
65656;SDS011;57397;50.096;14.404;2023-02-08T14:35:03;9.75;;;4.95;;
65656;SDS011;57397;50.096;14.404;2023-02-08T14:37:34;7.80;;;4.40;;
65656;SDS011;57397;50.096;14.404;2023-02-08T14:45:40;10.65;;;5.25;;
65656;SDS011;57397;50.096;14.404;2023-02-08T14:48:20;9.48;;;4.88;;
65656;SDS011;57397;50.096;14.404;2023-02-08T14:56:21;9.25;;;4.38;;
65656;SDS011;57397;50.096;14.404;2023-02-08T14:59:00;9.50;;;5.00;;
65656;SDS011;57397;50.096;14.404;2023-02-08T15:03:53;9.90;;;5.18;;
65656;SDS011;57397;50.096;14.404;2023-02-08T15:06:40;8.52;;;4.57;;
65656;SDS011;57397;50.096;14.404;2023-02-08T15:09:19;10.75;;;5.00;;
65656;SDS011;57397;50.096;14.404;2023-02-08T15:11:47;9.52;;;4.68;;
65656;SDS011;57397;50.096;14.404;2023-02-08T15:14:22;10.15;;;4.50;;
65656;SDS011;57397;50.096;14.404;2023-02-08T15:16:47;8.75;;;4.32;;
65656;SDS011;57397;50.096;14.404;2023-02-08T15:22:18;10.27;;;4.45;;
65656;SDS011;57397;50.096;14.404;2023-02-08T15:24:56;6.75;;;4.03;;
65656;SDS011;57397;50.096;14.404;2023-02-08T15:27:26;6.45;;;3.92;;
65656;SDS011;57397;50.096;14.404;2023-02-08T15:29:54;9.27;;;4.70;;
65656;SDS011;57397;50.096;14.404;2023-02-08T15:32:20;7.05;;;3.92;;
65656;SDS011;57397;50.096;14.404;2023-02-08T15:34:58;7.40;;;4.28;;
65656;SDS011;57397;50.096;14.404;2023-02-08T15:37:26;9.75;;;4.22;;
65656;SDS011;57397;50.096;14.404;2023-02-08T15:39:56;8.60;;;4.25;;
65656;SDS011;57397;50.096;14.404;2023-02-08T15:42:23;7.68;;;3.90;;
65656;SDS011;57397;50.096;14.404;2023-02-08T15:44:51;7.57;;;4.35;;
65656;SDS011;57397;50.096;14.404;2023-02-08T15:47:17;8.13;;;4.28;;
65656;SDS011;57397;50.096;14.404;2023-02-08T15:49:47;7.68;;;3.78;;
65656;SDS011;57397;50.096;14.404;2023-02-08T15:52:15;8.43;;;4.28;;
65656;SDS011;57397;50.096;14.404;2023-02-08T15:54:43;8.80;;;4.40;;
65656;SDS011;57397;50.096;14.404;2023-02-08T15:57:43;6.88;;;3.47;;
65656;SDS011;57397;50.096;14.404;2023-02-08T16:00:20;7.63;;;3.88;;
65656;SDS011;57397;50.096;14.404;2023-02-08T16:02:59;8.18;;;4.03;;
65656;SDS011;57397;50.096;14.404;2023-02-08T16:05:31;7.10;;;3.83;;
65656;SDS011;57397;50.096;14.404;2023-02-08T16:07:57;7.20;;;3.90;;
65656;SDS011;57397;50.096;14.404;2023-02-08T16:12:52;8.75;;;3.80;;
65656;SDS011;57397;50.096;14.404;2023-02-08T16:15:40;6.93;;;4.00;;
65656;SDS011;57397;50.096;14.404;2023-02-08T16:20:59;8.10;;;3.80;;
65656;SDS011;57397;50.096;14.404;2023-02-08T16:23:33;8.27;;;4.25;;
65656;SDS011;57397;50.096;14.404;2023-02-08T16:26:09;8.65;;;4.07;;
65656;SDS011;57397;50.096;14.404;2023-02-08T16:28:40;7.28;;;3.95;;
65656;SDS011;57397;50.096;14.404;2023-02-08T16:31:05;7.63;;;3.95;;
65656;SDS011;57397;50.096;14.404;2023-02-08T16:33:32;10.45;;;4.05;;
65656;SDS011;57397;50.096;14.404;2023-02-08T16:36:01;7.13;;;3.88;;
65656;SDS011;57397;50.096;14.404;2023-02-08T16:38:28;7.78;;;4.13;;
65656;SDS011;57397;50.096;14.404;2023-02-08T16:40:55;6.93;;;3.90;;
65656;SDS011;57397;50.096;14.404;2023-02-08T16:43:36;7.30;;;3.65;;
65656;SDS011;57397;50.096;14.404;2023-02-08T16:48:42;7.13;;;4.15;;
65656;SDS011;57397;50.096;14.404;2023-02-08T16:51:13;8.10;;;4.13;;
65656;SDS011;57397;50.096;14.404;2023-02-08T16:53:41;7.30;;;3.70;;
65656;SDS011;57397;50.096;14.404;2023-02-08T16:56:06;7.05;;;3.67;;
65656;SDS011;57397;50.096;14.404;2023-02-08T16:58:32;8.00;;;4.22;;
65656;SDS011;57397;50.096;14.404;2023-02-08T17:00:57;9.90;;;4.35;;
65656;SDS011;57397;50.096;14.404;2023-02-08T17:03:24;8.32;;;4.38;;
65656;SDS011;57397;50.096;14.404;2023-02-08T17:05:49;7.18;;;4.40;;
65656;SDS011;57397;50.096;14.404;2023-02-08T17:08:16;7.93;;;3.85;;
65656;SDS011;57397;50.096;14.404;2023-02-08T17:10:44;8.13;;;4.25;;
65656;SDS011;57397;50.096;14.404;2023-02-08T17:13:12;6.07;;;3.55;;
65656;SDS011;57397;50.096;14.404;2023-02-08T17:15:38;6.97;;;3.90;;